sensor_id;sensor_type;location;lat;lon;timestamp;P1;durP1;ratioP1;P2;durP2;ratioP2
19043;SDS011;9654;52.302;8.120;2022-07-29T00:01:00;4.53;;;1.70;;
19043;SDS011;9654;52.302;8.120;2022-07-29T00:03:27;2.03;;;1.40;;
19043;SDS011;9654;52.302;8.120;2022-07-29T00:05:54;2.77;;;1.43;;
19043;SDS011;9654;52.302;8.120;2022-07-29T00:08:21;3.83;;;1.37;;
19043;SDS011;9654;52.302;8.120;2022-07-29T00:10:47;2.87;;;1.37;;
19043;SDS011;9654;52.302;8.120;2022-07-29T00:13:14;3.27;;;1.43;;
19043;SDS011;9654;52.302;8.120;2022-07-29T00:15:41;2.40;;;1.33;;
19043;SDS011;9654;52.302;8.120;2022-07-29T00:18:09;5.47;;;1.50;;
19043;SDS011;9654;52.302;8.120;2022-07-29T00:20:36;3.07;;;1.30;;
19043;SDS011;9654;52.302;8.120;2022-07-29T00:23:03;7.10;;;1.33;;
19043;SDS011;9654;52.302;8.120;2022-07-29T00:25:30;2.97;;;1.67;;
19043;SDS011;9654;52.302;8.120;2022-07-29T00:27:56;5.13;;;1.30;;
19043;SDS011;9654;52.302;8.120;2022-07-29T00:30:23;10.37;;;2.37;;
19043;SDS011;9654;52.302;8.120;2022-07-29T00:32:50;3.07;;;1.30;;
19043;SDS011;9654;52.302;8.120;2022-07-29T00:35:18;7.27;;;1.50;;
19043;SDS011;9654;52.302;8.120;2022-07-29T00:38:02;3.93;;;1.50;;
19043;SDS011;9654;52.302;8.120;2022-07-29T00:40:29;6.27;;;1.60;;
19043;SDS011;9654;52.302;8.120;2022-07-29T00:42:56;4.70;;;1.93;;
19043;SDS011;9654;52.302;8.120;2022-07-29T00:45:22;4.13;;;1.40;;
19043;SDS011;9654;52.302;8.120;2022-07-29T00:47:49;2.20;;;1.20;;
19043;SDS011;9654;52.302;8.120;2022-07-29T00:50:17;3.23;;;1.53;;
19043;SDS011;9654;52.302;8.120;2022-07-29T00:52:44;4.03;;;1.73;;
19043;SDS011;9654;52.302;8.120;2022-07-29T00:55:13;2.30;;;1.17;;
19043;SDS011;9654;52.302;8.120;2022-07-29T00:57:41;2.77;;;1.30;;
19043;SDS011;9654;52.302;8.120;2022-07-29T01:00:10;2.53;;;1.17;;
19043;SDS011;9654;52.302;8.120;2022-07-29T01:02:38;4.63;;;1.63;;
19043;SDS011;9654;52.302;8.120;2022-07-29T01:05:05;9.50;;;1.63;;
19043;SDS011;9654;52.302;8.120;2022-07-29T01:07:34;2.73;;;1.67;;
19043;SDS011;9654;52.302;8.120;2022-07-29T01:10:02;5.27;;;1.50;;
19043;SDS011;9654;52.302;8.120;2022-07-29T01:12:30;4.10;;;1.30;;
19043;SDS011;9654;52.302;8.120;2022-07-29T01:14:59;3.07;;;1.40;;
19043;SDS011;9654;52.302;8.120;2022-07-29T01:17:28;2.53;;;1.40;;
19043;SDS011;9654;52.302;8.120;2022-07-29T01:20:00;1.67;;;1.50;;
19043;SDS011;9654;52.302;8.120;2022-07-29T01:22:36;1.63;;;1.33;;
19043;SDS011;9654;52.302;8.120;2022-07-29T01:25:17;2.77;;;1.40;;
19043;SDS011;9654;52.302;8.120;2022-07-29T01:28:08;4.63;;;1.40;;
19043;SDS011;9654;52.302;8.120;2022-07-29T01:30:48;7.37;;;1.70;;
19043;SDS011;9654;52.302;8.120;2022-07-29T01:33:17;2.50;;;1.60;;
19043;SDS011;9654;52.302;8.120;2022-07-29T01:36:07;4.47;;;1.53;;
19043;SDS011;9654;52.302;8.120;2022-07-29T01:38:37;2.50;;;1.47;;
19043;SDS011;9654;52.302;8.120;2022-07-29T01:41:06;4.00;;;1.40;;
19043;SDS011;9654;52.302;8.120;2022-07-29T01:43:39;4.93;;;1.77;;
19043;SDS011;9654;52.302;8.120;2022-07-29T01:46:13;1.40;;;1.30;;
19043;SDS011;9654;52.302;8.120;2022-07-29T01:48:45;4.83;;;1.73;;
19043;SDS011;9654;52.302;8.120;2022-07-29T01:51:14;6.20;;;1.53;;
19043;SDS011;9654;52.302;8.120;2022-07-29T01:53:46;5.77;;;2.43;;
19043;SDS011;9654;52.302;8.120;2022-07-29T01:56:18;4.20;;;1.30;;
19043;SDS011;9654;52.302;8.120;2022-07-29T01:58:46;2.87;;;1.43;;
19043;SDS011;9654;52.302;8.120;2022-07-29T02:01:15;2.40;;;1.63;;
19043;SDS011;9654;52.302;8.120;2022-07-29T02:03:44;4.37;;;1.50;;
19043;SDS011;9654;52.302;8.120;2022-07-29T02:06:12;5.20;;;1.70;;
19043;SDS011;9654;52.302;8.120;2022-07-29T02:08:42;4.80;;;1.60;;
19043;SDS011;9654;52.302;8.120;2022-07-29T02:11:11;2.70;;;1.17;;
19043;SDS011;9654;52.302;8.120;2022-07-29T02:13:38;5.50;;;1.80;;
19043;SDS011;9654;52.302;8.120;2022-07-29T02:16:07;3.97;;;1.97;;
19043;SDS011;9654;52.302;8.120;2022-07-29T02:18:37;1.73;;;1.60;;
19043;SDS011;9654;52.302;8.120;2022-07-29T02:21:06;8.00;;;1.57;;
19043;SDS011;9654;52.302;8.120;2022-07-29T02:23:35;4.93;;;1.83;;
19043;SDS011;9654;52.302;8.120;2022-07-29T02:26:05;5.27;;;1.40;;
19043;SDS011;9654;52.302;8.120;2022-07-29T02:28:34;2.20;;;1.57;;
19043;SDS011;9654;52.302;8.120;2022-07-29T02:31:02;3.33;;;1.53;;
19043;SDS011;9654;52.302;8.120;2022-07-29T02:33:30;3.30;;;1.40;;
19043;SDS011;9654;52.302;8.120;2022-07-29T02:35:59;3.27;;;1.60;;
19043;SDS011;9654;52.302;8.120;2022-07-29T02:38:28;3.73;;;1.40;;
19043;SDS011;9654;52.302;8.120;2022-07-29T02:41:15;8.63;;;1.60;;
19043;SDS011;9654;52.302;8.120;2022-07-29T02:43:45;5.33;;;1.63;;
19043;SDS011;9654;52.302;8.120;2022-07-29T02:46:15;2.90;;;1.47;;
19043;SDS011;9654;52.302;8.120;2022-07-29T02:48:48;4.50;;;1.30;;
19043;SDS011;9654;52.302;8.120;2022-07-29T02:51:23;4.53;;;1.83;;
19043;SDS011;9654;52.302;8.120;2022-07-29T02:53:54;4.87;;;1.50;;
19043;SDS011;9654;52.302;8.120;2022-07-29T02:56:23;4.57;;;1.60;;
19043;SDS011;9654;52.302;8.120;2022-07-29T02:58:54;3.37;;;1.33;;
19043;SDS011;9654;52.302;8.120;2022-07-29T03:01:28;1.40;;;1.30;;
19043;SDS011;9654;52.302;8.120;2022-07-29T03:04:00;1.77;;;1.63;;
19043;SDS011;9654;52.302;8.120;2022-07-29T03:06:32;4.63;;;1.50;;
19043;SDS011;9654;52.302;8.120;2022-07-29T03:09:00;6.17;;;1.40;;
19043;SDS011;9654;52.302;8.120;2022-07-29T03:11:27;4.63;;;1.70;;
19043;SDS011;9654;52.302;8.120;2022-07-29T03:13:55;3.97;;;1.63;;
19043;SDS011;9654;52.302;8.120;2022-07-29T03:16:23;3.37;;;1.53;;
19043;SDS011;9654;52.302;8.120;2022-07-29T03:18:50;3.13;;;1.50;;
19043;SDS011;9654;52.302;8.120;2022-07-29T03:21:18;7.97;;;1.60;;
19043;SDS011;9654;52.302;8.120;2022-07-29T03:23:46;4.00;;;2.20;;
19043;SDS011;9654;52.302;8.120;2022-07-29T03:26:13;1.50;;;1.40;;
19043;SDS011;9654;52.302;8.120;2022-07-29T03:28:40;4.37;;;1.37;;
19043;SDS011;9654;52.302;8.120;2022-07-29T03:31:06;6.13;;;1.27;;
19043;SDS011;9654;52.302;8.120;2022-07-29T03:33:33;6.83;;;1.40;;
19043;SDS011;9654;52.302;8.120;2022-07-29T03:36:00;2.30;;;1.37;;
19043;SDS011;9654;52.302;8.120;2022-07-29T03:38:27;2.07;;;1.40;;
19043;SDS011;9654;52.302;8.120;2022-07-29T03:41:00;2.50;;;1.33;;
19043;SDS011;9654;52.302;8.120;2022-07-29T03:43:29;5.30;;;1.70;;
19043;SDS011;9654;52.302;8.120;2022-07-29T03:45:58;2.50;;;1.30;;
19043;SDS011;9654;52.302;8.120;2022-07-29T03:48:28;3.63;;;1.97;;
19043;SDS011;9654;52.302;8.120;2022-07-29T03:50:58;4.23;;;1.60;;
19043;SDS011;9654;52.302;8.120;2022-07-29T03:53:25;4.50;;;1.60;;
19043;SDS011;9654;52.302;8.120;2022-07-29T03:55:53;1.47;;;1.37;;
19043;SDS011;9654;52.302;8.120;2022-07-29T03:58:23;2.17;;;1.60;;
19043;SDS011;9654;52.302;8.120;2022-07-29T04:00:53;2.47;;;1.47;;
19043;SDS011;9654;52.302;8.120;2022-07-29T04:03:21;5.10;;;1.90;;
19043;SDS011;9654;52.302;8.120;2022-07-29T04:05:57;4.63;;;1.40;;
19043;SDS011;9654;52.302;8.120;2022-07-29T04:08:24;1.53;;;1.30;;
19043;SDS011;9654;52.302;8.120;2022-07-29T04:10:51;3.73;;;1.10;;
19043;SDS011;9654;52.302;8.120;2022-07-29T04:13:18;1.87;;;1.40;;
19043;SDS011;9654;52.302;8.120;2022-07-29T04:15:46;7.87;;;1.80;;
19043;SDS011;9654;52.302;8.120;2022-07-29T04:18:13;5.27;;;1.60;;
19043;SDS011;9654;52.302;8.120;2022-07-29T04:20:40;3.17;;;1.20;;
19043;SDS011;9654;52.302;8.120;2022-07-29T04:23:06;4.33;;;1.30;;
19043;SDS011;9654;52.302;8.120;2022-07-29T04:25:36;2.80;;;1.47;;
19043;SDS011;9654;52.302;8.120;2022-07-29T04:28:03;5.87;;;1.40;;
19043;SDS011;9654;52.302;8.120;2022-07-29T04:30:31;2.03;;;1.40;;
19043;SDS011;9654;52.302;8.120;2022-07-29T04:33:00;7.27;;;1.47;;
19043;SDS011;9654;52.302;8.120;2022-07-29T04:35:27;8.00;;;1.73;;
19043;SDS011;9654;52.302;8.120;2022-07-29T04:37:54;3.27;;;1.93;;
19043;SDS011;9654;52.302;8.120;2022-07-29T04:40:21;4.77;;;1.50;;
19043;SDS011;9654;52.302;8.120;2022-07-29T04:42:48;6.83;;;1.87;;
19043;SDS011;9654;52.302;8.120;2022-07-29T04:45:15;6.07;;;1.50;;
19043;SDS011;9654;52.302;8.120;2022-07-29T04:47:42;2.87;;;1.60;;
19043;SDS011;9654;52.302;8.120;2022-07-29T04:50:10;4.10;;;1.57;;
19043;SDS011;9654;52.302;8.120;2022-07-29T04:52:37;1.70;;;1.27;;
19043;SDS011;9654;52.302;8.120;2022-07-29T04:55:04;3.80;;;1.67;;
19043;SDS011;9654;52.302;8.120;2022-07-29T04:57:32;4.07;;;1.50;;
19043;SDS011;9654;52.302;8.120;2022-07-29T04:59:58;2.83;;;1.30;;
19043;SDS011;9654;52.302;8.120;2022-07-29T05:02:25;2.07;;;1.40;;
19043;SDS011;9654;52.302;8.120;2022-07-29T05:04:52;2.93;;;1.30;;
19043;SDS011;9654;52.302;8.120;2022-07-29T05:07:20;2.77;;;1.50;;
19043;SDS011;9654;52.302;8.120;2022-07-29T05:09:47;3.53;;;1.60;;
19043;SDS011;9654;52.302;8.120;2022-07-29T05:12:14;2.17;;;1.50;;
19043;SDS011;9654;52.302;8.120;2022-07-29T05:14:40;4.87;;;1.63;;
19043;SDS011;9654;52.302;8.120;2022-07-29T05:17:07;4.00;;;1.70;;
19043;SDS011;9654;52.302;8.120;2022-07-29T05:19:34;4.57;;;1.60;;
19043;SDS011;9654;52.302;8.120;2022-07-29T05:22:01;5.70;;;1.63;;
19043;SDS011;9654;52.302;8.120;2022-07-29T05:24:29;4.70;;;2.07;;
19043;SDS011;9654;52.302;8.120;2022-07-29T05:26:56;5.00;;;1.77;;
19043;SDS011;9654;52.302;8.120;2022-07-29T05:29:22;4.00;;;1.80;;
19043;SDS011;9654;52.302;8.120;2022-07-29T05:31:49;7.73;;;2.30;;
19043;SDS011;9654;52.302;8.120;2022-07-29T05:34:17;4.97;;;2.57;;
19043;SDS011;9654;52.302;8.120;2022-07-29T05:36:44;3.93;;;2.30;;
19043;SDS011;9654;52.302;8.120;2022-07-29T05:39:11;6.70;;;1.87;;
19043;SDS011;9654;52.302;8.120;2022-07-29T05:41:40;6.13;;;1.90;;
19043;SDS011;9654;52.302;8.120;2022-07-29T05:44:06;5.07;;;1.80;;
19043;SDS011;9654;52.302;8.120;2022-07-29T05:46:33;4.50;;;1.60;;
19043;SDS011;9654;52.302;8.120;2022-07-29T05:49:00;8.07;;;2.37;;
19043;SDS011;9654;52.302;8.120;2022-07-29T05:51:27;2.17;;;1.93;;
19043;SDS011;9654;52.302;8.120;2022-07-29T05:53:55;6.27;;;2.00;;
19043;SDS011;9654;52.302;8.120;2022-07-29T05:56:21;4.20;;;1.80;;
19043;SDS011;9654;52.302;8.120;2022-07-29T05:58:49;5.00;;;1.80;;
19043;SDS011;9654;52.302;8.120;2022-07-29T06:01:17;4.13;;;1.83;;
19043;SDS011;9654;52.302;8.120;2022-07-29T06:03:44;5.40;;;2.00;;
19043;SDS011;9654;52.302;8.120;2022-07-29T06:06:11;4.20;;;1.87;;
19043;SDS011;9654;52.302;8.120;2022-07-29T06:08:38;3.87;;;1.80;;
19043;SDS011;9654;52.302;8.120;2022-07-29T06:11:06;4.30;;;1.97;;
19043;SDS011;9654;52.302;8.120;2022-07-29T06:13:33;4.93;;;1.80;;
19043;SDS011;9654;52.302;8.120;2022-07-29T06:16:01;4.00;;;1.67;;
19043;SDS011;9654;52.302;8.120;2022-07-29T06:18:29;3.70;;;2.23;;
19043;SDS011;9654;52.302;8.120;2022-07-29T06:20:56;3.87;;;1.73;;
19043;SDS011;9654;52.302;8.120;2022-07-29T06:23:22;4.37;;;1.80;;
19043;SDS011;9654;52.302;8.120;2022-07-29T06:25:49;2.43;;;1.47;;
19043;SDS011;9654;52.302;8.120;2022-07-29T06:28:16;6.10;;;1.67;;
19043;SDS011;9654;52.302;8.120;2022-07-29T06:30:43;6.93;;;1.97;;
19043;SDS011;9654;52.302;8.120;2022-07-29T06:33:14;4.27;;;1.60;;
19043;SDS011;9654;52.302;8.120;2022-07-29T06:35:42;4.37;;;1.87;;
19043;SDS011;9654;52.302;8.120;2022-07-29T06:38:09;6.13;;;2.10;;
19043;SDS011;9654;52.302;8.120;2022-07-29T06:40:40;3.30;;;1.47;;
19043;SDS011;9654;52.302;8.120;2022-07-29T06:43:24;7.40;;;2.00;;
19043;SDS011;9654;52.302;8.120;2022-07-29T06:45:51;3.37;;;1.50;;
19043;SDS011;9654;52.302;8.120;2022-07-29T06:48:19;12.20;;;2.27;;
19043;SDS011;9654;52.302;8.120;2022-07-29T06:50:46;1.47;;;1.37;;
19043;SDS011;9654;52.302;8.120;2022-07-29T06:53:13;2.43;;;1.50;;
19043;SDS011;9654;52.302;8.120;2022-07-29T06:55:40;3.50;;;1.87;;
19043;SDS011;9654;52.302;8.120;2022-07-29T06:58:07;4.47;;;1.70;;
19043;SDS011;9654;52.302;8.120;2022-07-29T07:00:34;5.27;;;1.70;;
19043;SDS011;9654;52.302;8.120;2022-07-29T07:03:00;4.53;;;2.00;;
19043;SDS011;9654;52.302;8.120;2022-07-29T07:05:29;1.67;;;1.53;;
19043;SDS011;9654;52.302;8.120;2022-07-29T07:07:55;5.27;;;2.00;;
19043;SDS011;9654;52.302;8.120;2022-07-29T07:10:22;7.53;;;1.50;;
19043;SDS011;9654;52.302;8.120;2022-07-29T07:12:49;6.73;;;1.83;;
19043;SDS011;9654;52.302;8.120;2022-07-29T07:15:16;6.60;;;1.50;;
19043;SDS011;9654;52.302;8.120;2022-07-29T07:17:46;5.33;;;1.37;;
19043;SDS011;9654;52.302;8.120;2022-07-29T07:20:13;2.33;;;1.43;;
19043;SDS011;9654;52.302;8.120;2022-07-29T07:22:41;4.07;;;1.60;;
19043;SDS011;9654;52.302;8.120;2022-07-29T07:25:08;4.00;;;1.50;;
19043;SDS011;9654;52.302;8.120;2022-07-29T07:27:35;4.83;;;1.60;;
19043;SDS011;9654;52.302;8.120;2022-07-29T07:30:03;3.13;;;1.50;;
19043;SDS011;9654;52.302;8.120;2022-07-29T07:32:31;4.30;;;1.80;;
19043;SDS011;9654;52.302;8.120;2022-07-29T07:34:58;4.00;;;1.50;;
19043;SDS011;9654;52.302;8.120;2022-07-29T07:37:25;3.90;;;1.60;;
19043;SDS011;9654;52.302;8.120;2022-07-29T07:39:53;4.50;;;1.27;;
19043;SDS011;9654;52.302;8.120;2022-07-29T07:42:20;5.90;;;1.33;;
19043;SDS011;9654;52.302;8.120;2022-07-29T07:44:47;4.63;;;1.23;;
19043;SDS011;9654;52.302;8.120;2022-07-29T07:47:14;5.60;;;1.40;;
19043;SDS011;9654;52.302;8.120;2022-07-29T07:49:44;5.73;;;1.40;;
19043;SDS011;9654;52.302;8.120;2022-07-29T07:52:11;2.07;;;1.30;;
19043;SDS011;9654;52.302;8.120;2022-07-29T07:54:38;5.70;;;1.63;;
19043;SDS011;9654;52.302;8.120;2022-07-29T07:57:06;4.57;;;1.67;;
19043;SDS011;9654;52.302;8.120;2022-07-29T07:59:33;3.87;;;1.53;;
19043;SDS011;9654;52.302;8.120;2022-07-29T08:02:00;4.20;;;1.30;;
19043;SDS011;9654;52.302;8.120;2022-07-29T08:04:27;7.43;;;1.60;;
19043;SDS011;9654;52.302;8.120;2022-07-29T08:06:53;3.13;;;1.47;;
19043;SDS011;9654;52.302;8.120;2022-07-29T08:09:21;4.70;;;1.30;;
19043;SDS011;9654;52.302;8.120;2022-07-29T08:11:47;2.80;;;1.50;;
19043;SDS011;9654;52.302;8.120;2022-07-29T08:14:15;2.73;;;1.30;;
19043;SDS011;9654;52.302;8.120;2022-07-29T08:16:42;5.83;;;1.50;;
19043;SDS011;9654;52.302;8.120;2022-07-29T08:19:09;2.03;;;1.17;;
19043;SDS011;9654;52.302;8.120;2022-07-29T08:21:36;5.53;;;1.43;;
19043;SDS011;9654;52.302;8.120;2022-07-29T08:24:03;3.63;;;1.37;;
19043;SDS011;9654;52.302;8.120;2022-07-29T08:26:49;5.20;;;1.30;;
19043;SDS011;9654;52.302;8.120;2022-07-29T08:29:17;4.03;;;1.60;;
19043;SDS011;9654;52.302;8.120;2022-07-29T08:31:44;4.73;;;1.77;;
19043;SDS011;9654;52.302;8.120;2022-07-29T08:34:10;8.30;;;1.37;;
19043;SDS011;9654;52.302;8.120;2022-07-29T08:36:37;10.93;;;2.07;;
19043;SDS011;9654;52.302;8.120;2022-07-29T08:39:04;6.87;;;1.70;;
19043;SDS011;9654;52.302;8.120;2022-07-29T08:41:31;7.67;;;1.77;;
19043;SDS011;9654;52.302;8.120;2022-07-29T08:43:58;3.30;;;1.40;;
19043;SDS011;9654;52.302;8.120;2022-07-29T08:46:26;2.27;;;1.60;;
19043;SDS011;9654;52.302;8.120;2022-07-29T08:48:53;3.70;;;1.43;;
19043;SDS011;9654;52.302;8.120;2022-07-29T08:51:21;2.07;;;1.30;;
19043;SDS011;9654;52.302;8.120;2022-07-29T08:53:49;5.50;;;1.50;;
19043;SDS011;9654;52.302;8.120;2022-07-29T08:56:16;8.33;;;2.23;;
19043;SDS011;9654;52.302;8.120;2022-07-29T08:58:46;5.00;;;1.23;;
19043;SDS011;9654;52.302;8.120;2022-07-29T09:01:13;4.20;;;1.40;;
19043;SDS011;9654;52.302;8.120;2022-07-29T09:03:44;6.43;;;1.40;;
19043;SDS011;9654;52.302;8.120;2022-07-29T09:06:13;3.13;;;1.20;;
19043;SDS011;9654;52.302;8.120;2022-07-29T09:08:40;5.03;;;1.63;;
19043;SDS011;9654;52.302;8.120;2022-07-29T09:11:08;2.37;;;1.30;;
19043;SDS011;9654;52.302;8.120;2022-07-29T09:13:36;4.23;;;1.57;;
19043;SDS011;9654;52.302;8.120;2022-07-29T09:16:03;3.93;;;1.77;;
19043;SDS011;9654;52.302;8.120;2022-07-29T09:18:34;5.63;;;1.40;;
19043;SDS011;9654;52.302;8.120;2022-07-29T09:21:03;4.70;;;1.73;;
19043;SDS011;9654;52.302;8.120;2022-07-29T09:24:02;2.83;;;1.30;;
19043;SDS011;9654;52.302;8.120;2022-07-29T09:26:34;5.55;;;1.55;;
19043;SDS011;9654;52.302;8.120;2022-07-29T09:29:07;4.07;;;1.50;;
19043;SDS011;9654;52.302;8.120;2022-07-29T09:31:36;1.55;;;1.15;;
19043;SDS011;9654;52.302;8.120;2022-07-29T09:34:04;2.05;;;1.13;;
19043;SDS011;9654;52.302;8.120;2022-07-29T09:36:38;2.95;;;1.60;;
19043;SDS011;9654;52.302;8.120;2022-07-29T09:39:05;2.58;;;1.40;;
19043;SDS011;9654;52.302;8.120;2022-07-29T09:41:43;2.80;;;1.92;;
19043;SDS011;9654;52.302;8.120;2022-07-29T09:44:14;5.25;;;1.67;;
19043;SDS011;9654;52.302;8.120;2022-07-29T09:46:51;4.28;;;1.30;;
19043;SDS011;9654;52.302;8.120;2022-07-29T09:49:31;4.40;;;1.60;;
19043;SDS011;9654;52.302;8.120;2022-07-29T09:52:00;3.10;;;1.55;;
19043;SDS011;9654;52.302;8.120;2022-07-29T09:54:31;4.05;;;1.30;;
19043;SDS011;9654;52.302;8.120;2022-07-29T09:57:02;3.70;;;1.48;;
19043;SDS011;9654;52.302;8.120;2022-07-29T09:59:30;10.45;;;1.75;;
19043;SDS011;9654;52.302;8.120;2022-07-29T10:01:57;5.47;;;1.60;;
19043;SDS011;9654;52.302;8.120;2022-07-29T10:04:23;5.15;;;1.85;;
19043;SDS011;9654;52.302;8.120;2022-07-29T10:07:03;4.63;;;1.60;;
19043;SDS011;9654;52.302;8.120;2022-07-29T10:09:30;3.50;;;1.30;;
19043;SDS011;9654;52.302;8.120;2022-07-29T10:12:07;4.95;;;1.80;;
19043;SDS011;9654;52.302;8.120;2022-07-29T10:14:36;2.75;;;1.27;;
19043;SDS011;9654;52.302;8.120;2022-07-29T10:17:03;3.35;;;1.40;;
19043;SDS011;9654;52.302;8.120;2022-07-29T10:19:31;5.03;;;1.67;;
19043;SDS011;9654;52.302;8.120;2022-07-29T10:21:59;5.85;;;1.60;;
19043;SDS011;9654;52.302;8.120;2022-07-29T10:24:29;3.38;;;1.40;;
19043;SDS011;9654;52.302;8.120;2022-07-29T10:26:57;3.90;;;1.70;;
19043;SDS011;9654;52.302;8.120;2022-07-29T10:29:25;7.35;;;1.58;;
19043;SDS011;9654;52.302;8.120;2022-07-29T10:31:57;3.60;;;1.70;;
19043;SDS011;9654;52.302;8.120;2022-07-29T10:35:12;4.43;;;1.47;;
19043;SDS011;9654;52.302;8.120;2022-07-29T10:37:49;7.03;;;1.85;;
19043;SDS011;9654;52.302;8.120;2022-07-29T10:40:32;2.40;;;1.58;;
19043;SDS011;9654;52.302;8.120;2022-07-29T10:43:22;4.25;;;1.98;;
19043;SDS011;9654;52.302;8.120;2022-07-29T10:45:54;2.83;;;1.25;;
19043;SDS011;9654;52.302;8.120;2022-07-29T10:48:23;5.00;;;1.63;;
19043;SDS011;9654;52.302;8.120;2022-07-29T10:50:53;4.38;;;1.60;;
19043;SDS011;9654;52.302;8.120;2022-07-29T10:53:21;6.93;;;1.58;;
19043;SDS011;9654;52.302;8.120;2022-07-29T10:55:50;2.05;;;1.65;;
19043;SDS011;9654;52.302;8.120;2022-07-29T10:58:18;2.88;;;1.92;;
19043;SDS011;9654;52.302;8.120;2022-07-29T11:00:46;3.33;;;1.65;;
19043;SDS011;9654;52.302;8.120;2022-07-29T11:06:11;5.97;;;1.70;;
19043;SDS011;9654;52.302;8.120;2022-07-29T11:08:38;5.78;;;1.83;;
19043;SDS011;9654;52.302;8.120;2022-07-29T11:14:56;12.13;;;1.83;;
19043;SDS011;9654;52.302;8.120;2022-07-29T11:17:26;4.32;;;1.90;;
19043;SDS011;9654;52.302;8.120;2022-07-29T11:20:08;5.88;;;2.08;;
19043;SDS011;9654;52.302;8.120;2022-07-29T11:22:58;5.93;;;2.03;;
19043;SDS011;9654;52.302;8.120;2022-07-29T11:25:26;7.22;;;2.05;;
19043;SDS011;9654;52.302;8.120;2022-07-29T11:27:54;5.53;;;1.65;;
19043;SDS011;9654;52.302;8.120;2022-07-29T11:30:51;5.63;;;1.67;;
19043;SDS011;9654;52.302;8.120;2022-07-29T11:33:28;8.90;;;1.88;;
19043;SDS011;9654;52.302;8.120;2022-07-29T11:36:08;8.98;;;1.92;;
19043;SDS011;9654;52.302;8.120;2022-07-29T11:38:36;5.18;;;2.67;;
19043;SDS011;9654;52.302;8.120;2022-07-29T11:41:22;6.40;;;1.85;;
19043;SDS011;9654;52.302;8.120;2022-07-29T11:43:51;6.38;;;1.88;;
19043;SDS011;9654;52.302;8.120;2022-07-29T11:49:22;4.38;;;1.75;;
19043;SDS011;9654;52.302;8.120;2022-07-29T11:51:50;7.13;;;2.10;;
19043;SDS011;9654;52.302;8.120;2022-07-29T11:54:25;4.00;;;1.85;;
19043;SDS011;9654;52.302;8.120;2022-07-29T11:56:55;5.60;;;1.80;;
19043;SDS011;9654;52.302;8.120;2022-07-29T11:59:24;4.50;;;1.80;;
19043;SDS011;9654;52.302;8.120;2022-07-29T12:01:52;4.68;;;1.77;;
19043;SDS011;9654;52.302;8.120;2022-07-29T12:04:19;6.45;;;2.03;;
19043;SDS011;9654;52.302;8.120;2022-07-29T12:06:50;7.25;;;2.50;;
19043;SDS011;9654;52.302;8.120;2022-07-29T12:09:17;5.82;;;2.28;;
19043;SDS011;9654;52.302;8.120;2022-07-29T12:11:45;4.30;;;1.55;;
19043;SDS011;9654;52.302;8.120;2022-07-29T12:14:24;4.05;;;1.58;;
19043;SDS011;9654;52.302;8.120;2022-07-29T12:16:51;6.68;;;2.05;;
19043;SDS011;9654;52.302;8.120;2022-07-29T12:19:18;5.80;;;1.75;;
19043;SDS011;9654;52.302;8.120;2022-07-29T12:21:45;4.40;;;2.20;;
19043;SDS011;9654;52.302;8.120;2022-07-29T12:24:13;7.18;;;2.33;;
19043;SDS011;9654;52.302;8.120;2022-07-29T12:26:48;5.32;;;1.80;;
19043;SDS011;9654;52.302;8.120;2022-07-29T12:29:16;7.15;;;2.08;;
19043;SDS011;9654;52.302;8.120;2022-07-29T12:31:43;6.32;;;2.33;;
19043;SDS011;9654;52.302;8.120;2022-07-29T12:34:11;6.13;;;2.10;;
19043;SDS011;9654;52.302;8.120;2022-07-29T12:36:39;5.18;;;2.00;;
19043;SDS011;9654;52.302;8.120;2022-07-29T12:39:07;6.55;;;2.28;;
19043;SDS011;9654;52.302;8.120;2022-07-29T12:41:36;8.93;;;2.20;;
19043;SDS011;9654;52.302;8.120;2022-07-29T12:44:03;6.07;;;1.67;;
19043;SDS011;9654;52.302;8.120;2022-07-29T12:46:30;3.90;;;1.92;;
19043;SDS011;9654;52.302;8.120;2022-07-29T12:48:57;9.07;;;2.08;;
19043;SDS011;9654;52.302;8.120;2022-07-29T12:51:30;5.47;;;1.85;;
19043;SDS011;9654;52.302;8.120;2022-07-29T12:54:03;5.00;;;2.03;;
19043;SDS011;9654;52.302;8.120;2022-07-29T12:56:31;5.25;;;1.70;;
19043;SDS011;9654;52.302;8.120;2022-07-29T12:59:00;6.55;;;1.90;;
19043;SDS011;9654;52.302;8.120;2022-07-29T13:01:38;6.45;;;2.28;;
19043;SDS011;9654;52.302;8.120;2022-07-29T13:04:05;6.65;;;2.33;;
19043;SDS011;9654;52.302;8.120;2022-07-29T13:06:33;7.22;;;1.95;;
19043;SDS011;9654;52.302;8.120;2022-07-29T13:09:03;5.05;;;2.05;;
19043;SDS011;9654;52.302;8.120;2022-07-29T13:11:33;8.35;;;2.10;;
19043;SDS011;9654;52.302;8.120;2022-07-29T13:14:02;5.75;;;2.17;;
19043;SDS011;9654;52.302;8.120;2022-07-29T13:16:29;5.20;;;1.85;;
19043;SDS011;9654;52.302;8.120;2022-07-29T13:19:06;6.05;;;2.28;;
19043;SDS011;9654;52.302;8.120;2022-07-29T13:21:35;3.58;;;2.10;;
19043;SDS011;9654;52.302;8.120;2022-07-29T13:24:03;5.80;;;2.10;;
19043;SDS011;9654;52.302;8.120;2022-07-29T13:26:30;5.40;;;2.15;;
19043;SDS011;9654;52.302;8.120;2022-07-29T13:28:57;4.10;;;2.38;;
19043;SDS011;9654;52.302;8.120;2022-07-29T13:31:26;12.27;;;2.60;;
19043;SDS011;9654;52.302;8.120;2022-07-29T13:33:53;4.43;;;1.90;;
19043;SDS011;9654;52.302;8.120;2022-07-29T13:36:19;7.03;;;2.13;;
19043;SDS011;9654;52.302;8.120;2022-07-29T13:38:46;6.25;;;1.95;;
19043;SDS011;9654;52.302;8.120;2022-07-29T13:41:13;5.83;;;2.20;;
19043;SDS011;9654;52.302;8.120;2022-07-29T13:43:40;4.97;;;2.40;;
19043;SDS011;9654;52.302;8.120;2022-07-29T13:46:06;9.07;;;2.70;;
19043;SDS011;9654;52.302;8.120;2022-07-29T13:48:34;10.27;;;2.60;;
19043;SDS011;9654;52.302;8.120;2022-07-29T13:51:01;7.30;;;2.70;;
19043;SDS011;9654;52.302;8.120;2022-07-29T13:53:28;8.03;;;2.77;;
19043;SDS011;9654;52.302;8.120;2022-07-29T13:55:55;7.40;;;2.10;;
19043;SDS011;9654;52.302;8.120;2022-07-29T13:58:21;8.33;;;2.43;;
19043;SDS011;9654;52.302;8.120;2022-07-29T14:00:49;4.73;;;2.33;;
19043;SDS011;9654;52.302;8.120;2022-07-29T14:03:16;5.00;;;2.40;;
19043;SDS011;9654;52.302;8.120;2022-07-29T14:05:44;7.97;;;2.40;;
19043;SDS011;9654;52.302;8.120;2022-07-29T14:08:11;6.20;;;2.50;;
19043;SDS011;9654;52.302;8.120;2022-07-29T14:10:37;4.97;;;2.87;;
19043;SDS011;9654;52.302;8.120;2022-07-29T14:13:04;8.47;;;2.80;;
19043;SDS011;9654;52.302;8.120;2022-07-29T14:15:31;4.50;;;2.70;;
19043;SDS011;9654;52.302;8.120;2022-07-29T14:17:58;4.57;;;2.30;;
19043;SDS011;9654;52.302;8.120;2022-07-29T14:20:25;6.73;;;2.40;;
19043;SDS011;9654;52.302;8.120;2022-07-29T14:22:54;13.93;;;2.97;;
19043;SDS011;9654;52.302;8.120;2022-07-29T14:25:21;5.93;;;2.40;;
19043;SDS011;9654;52.302;8.120;2022-07-29T14:27:48;6.27;;;2.43;;
19043;SDS011;9654;52.302;8.120;2022-07-29T14:30:15;7.40;;;2.30;;
19043;SDS011;9654;52.302;8.120;2022-07-29T14:32:41;6.20;;;2.60;;
19043;SDS011;9654;52.302;8.120;2022-07-29T14:35:08;8.40;;;2.00;;
19043;SDS011;9654;52.302;8.120;2022-07-29T14:37:35;8.87;;;2.20;;
19043;SDS011;9654;52.302;8.120;2022-07-29T14:40:04;4.20;;;2.03;;
19043;SDS011;9654;52.302;8.120;2022-07-29T14:42:31;7.10;;;2.40;;
19043;SDS011;9654;52.302;8.120;2022-07-29T14:44:58;5.03;;;2.30;;
19043;SDS011;9654;52.302;8.120;2022-07-29T14:47:25;3.07;;;2.23;;
19043;SDS011;9654;52.302;8.120;2022-07-29T14:49:52;5.63;;;2.37;;
19043;SDS011;9654;52.302;8.120;2022-07-29T14:52:18;5.60;;;2.17;;
19043;SDS011;9654;52.302;8.120;2022-07-29T14:54:45;4.73;;;2.40;;
19043;SDS011;9654;52.302;8.120;2022-07-29T14:57:13;8.97;;;2.83;;
19043;SDS011;9654;52.302;8.120;2022-07-29T14:59:40;5.27;;;1.90;;
19043;SDS011;9654;52.302;8.120;2022-07-29T15:02:07;4.87;;;2.37;;
19043;SDS011;9654;52.302;8.120;2022-07-29T15:04:34;9.10;;;2.20;;
19043;SDS011;9654;52.302;8.120;2022-07-29T15:07:01;2.97;;;1.90;;
19043;SDS011;9654;52.302;8.120;2022-07-29T15:09:27;6.63;;;2.33;;
19043;SDS011;9654;52.302;8.120;2022-07-29T15:11:54;6.43;;;2.70;;
19043;SDS011;9654;52.302;8.120;2022-07-29T15:14:22;14.70;;;4.57;;
19043;SDS011;9654;52.302;8.120;2022-07-29T15:16:49;8.67;;;4.13;;
19043;SDS011;9654;52.302;8.120;2022-07-29T15:19:16;5.37;;;2.73;;
19043;SDS011;9654;52.302;8.120;2022-07-29T15:21:42;5.17;;;2.40;;